createdAt,value
2023-04-15T00:00:42.171Z,56.75
2023-04-15T00:01:42.120Z,57.04
2023-04-15T00:02:42.197Z,56.56
2023-04-15T00:03:42.201Z,56.75
2023-04-15T00:04:42.116Z,56.56
2023-04-15T00:05:42.071Z,56.75
2023-04-15T00:06:42.024Z,56.94
2023-04-15T00:07:42.106Z,56.75
2023-04-15T00:08:42.006Z,56.66
2023-04-15T00:09:41.965Z,56.56
2023-04-15T00:10:41.945Z,56.75
2023-04-15T00:11:41.937Z,56.75
2023-04-15T00:12:41.915Z,56.75
2023-04-15T00:13:41.901Z,56.66
2023-04-15T00:14:41.882Z,56.94
2023-04-15T00:15:41.869Z,56.75
2023-04-15T00:16:41.905Z,56.85
2023-04-15T00:17:41.860Z,57.23
2023-04-15T00:18:41.813Z,57.23
2023-04-15T00:19:41.794Z,57.13
2023-04-15T00:20:41.783Z,57.23
2023-04-15T00:21:41.761Z,57.13
2023-04-15T00:22:41.768Z,57.42
2023-04-15T00:23:41.724Z,57.51
2023-04-15T00:24:41.711Z,57.51
2023-04-15T00:25:41.690Z,57.32
2023-04-15T00:26:41.671Z,57.23
2023-04-15T00:27:41.652Z,57.42
2023-04-15T00:28:41.638Z,57.60
2023-04-15T00:29:41.625Z,57.98
2023-04-15T00:30:41.661Z,58.07
2023-04-15T00:31:41.593Z,57.98
2023-04-15T00:32:41.599Z,58.07
2023-04-15T00:33:41.549Z,58.07
2023-04-15T00:34:41.542Z,58.17
2023-04-15T00:35:41.530Z,58.07
2023-04-15T00:36:41.500Z,57.70
2023-04-15T00:37:41.480Z,57.89
2023-04-15T00:38:41.475Z,57.98
2023-04-15T00:39:41.449Z,57.89
2023-04-15T00:40:41.433Z,57.89
2023-04-15T00:41:41.415Z,58.26
2023-04-15T00:42:41.403Z,58.24
2023-04-15T00:43:41.374Z,58.33
2023-04-15T00:44:41.381Z,58.52
2023-04-15T00:45:41.457Z,58.43
2023-04-15T00:46:41.324Z,58.52
2023-04-15T00:47:41.350Z,58.36
2023-04-15T00:48:41.298Z,57.95
2023-04-15T00:49:41.280Z,57.95
2023-04-15T00:50:41.257Z,57.86
2023-04-15T00:51:41.239Z,57.86
2023-04-15T00:52:41.230Z,57.76
2023-04-15T00:53:41.209Z,57.67
2023-04-15T00:54:41.257Z,57.67
2023-04-15T00:55:41.167Z,57.95
2023-04-15T00:56:41.149Z,57.67
2023-04-15T00:57:41.279Z,57.95
2023-04-15T00:58:41.118Z,57.95
2023-04-15T00:59:41.124Z,58.52
2023-04-15T01:00:41.079Z,58.33
2023-04-15T01:01:41.112Z,58.71
2023-04-15T01:02:41.196Z,58.71
2023-04-15T01:03:41.116Z,58.43
2023-04-15T01:04:41.013Z,58.52
2023-04-15T01:05:41.003Z,58.62
2023-04-15T01:06:40.974Z,58.81
2023-04-15T01:07:40.963Z,58.62
2023-04-15T01:08:40.941Z,58.62
2023-04-15T01:09:40.922Z,58.62
2023-04-15T01:10:40.908Z,58.52
2023-04-15T01:11:40.886Z,58.71
2023-04-15T01:12:40.872Z,58.52
2023-04-15T01:13:40.857Z,58.43
2023-04-15T01:14:40.846Z,58.52
2023-04-15T01:15:40.864Z,58.71
2023-04-15T01:16:40.803Z,58.81
2023-04-15T01:17:40.818Z,59.00
2023-04-15T01:18:40.764Z,58.71
2023-04-15T01:21:24.932Z,58.43
2023-04-15T01:22:24.890Z,58.24
2023-04-15T01:23:24.869Z,58.52
2023-04-15T01:24:24.871Z,58.90
2023-04-15T01:25:24.836Z,59.09
2023-04-15T01:26:24.825Z,58.52
2023-04-15T01:27:24.801Z,59.19
2023-04-15T01:28:24.792Z,58.62
2023-04-15T01:29:24.771Z,58.81
2023-04-15T01:30:24.749Z,58.90
2023-04-15T01:31:24.786Z,58.81
2023-04-15T01:32:24.739Z,59.19
2023-04-15T01:33:24.729Z,58.81
2023-04-15T01:34:24.694Z,59.09
2023-04-15T01:35:24.940Z,58.90
2023-04-15T01:36:24.642Z,58.90
2023-04-15T01:37:24.629Z,58.71
2023-04-15T01:38:24.619Z,59.19
2023-04-15T01:39:24.591Z,58.71
2023-04-15T01:40:24.572Z,59.09
2023-04-15T01:41:24.554Z,59.19
2023-04-15T01:42:24.542Z,59.19
2023-04-15T01:43:24.520Z,58.62
2023-04-15T01:44:24.511Z,58.81
2023-04-15T01:45:24.550Z,59.09
2023-04-15T01:46:24.519Z,58.24
2023-04-15T01:47:24.501Z,58.24
2023-04-15T01:48:24.457Z,58.43
2023-04-15T01:49:24.420Z,59.28
2023-04-15T01:50:24.413Z,58.52
2023-04-15T01:51:24.385Z,59.19
2023-04-15T01:52:24.365Z,58.81
2023-04-15T01:53:24.351Z,59.09
2023-04-15T01:54:24.329Z,58.90
2023-04-15T01:55:24.317Z,58.81
2023-04-15T01:56:24.298Z,58.81
2023-04-15T01:57:24.285Z,58.90
2023-04-15T01:58:24.265Z,58.90
2023-04-15T01:59:24.241Z,59.00
2023-04-15T02:00:24.223Z,59.09
2023-04-15T02:01:24.235Z,59.09
2023-04-15T02:02:24.280Z,58.90
2023-04-15T02:03:24.275Z,59.38
2023-04-15T02:04:24.157Z,59.00
2023-04-15T02:05:24.138Z,58.90
2023-04-15T02:06:24.138Z,59.19
2023-04-15T02:07:24.100Z,59.00
2023-04-15T02:08:24.083Z,59.00
2023-04-15T02:09:24.066Z,59.00
2023-04-15T02:10:24.066Z,58.90
2023-04-15T02:11:24.031Z,59.09
2023-04-15T02:12:24.019Z,58.90
2023-04-15T02:13:24.000Z,59.00
2023-04-15T02:14:23.979Z,59.19
2023-04-15T02:15:23.961Z,59.09
2023-04-15T02:16:23.994Z,59.00
2023-04-15T02:17:23.945Z,59.00
2023-04-15T02:18:23.934Z,59.38
2023-04-15T02:19:23.910Z,59.38
2023-04-15T02:20:23.868Z,59.38
2023-04-15T02:21:23.859Z,59.47
2023-04-15T02:22:23.837Z,59.28
2023-04-15T02:23:23.822Z,59.19
2023-04-15T02:24:23.806Z,59.19
2023-04-15T02:25:23.785Z,59.38
2023-04-15T02:26:23.769Z,59.00
2023-04-15T02:27:23.750Z,59.38
2023-04-15T02:28:23.736Z,59.56
2023-04-15T02:29:23.712Z,59.47
2023-04-15T02:30:23.693Z,59.47
2023-04-15T02:31:23.682Z,59.56
2023-04-15T02:32:23.670Z,59.66
2023-04-15T02:33:23.684Z,59.56
2023-04-15T02:34:23.629Z,59.38
2023-04-15T02:35:23.606Z,59.19
2023-04-15T02:36:23.589Z,59.28
2023-04-15T02:37:23.572Z,59.56
2023-04-15T02:38:24.486Z,59.38
2023-04-15T02:39:23.538Z,59.56
2023-04-15T02:40:23.537Z,59.28
2023-04-15T02:41:23.500Z,59.66
2023-04-15T02:42:23.486Z,59.38
2023-04-15T02:43:23.469Z,59.47
2023-04-15T02:44:23.472Z,59.38
2023-04-15T02:45:23.436Z,59.84
2023-04-15T02:46:23.494Z,59.94
2023-04-15T02:47:23.409Z,59.84
2023-04-15T02:48:23.378Z,59.84
2023-04-15T02:49:23.361Z,59.66
2023-04-15T02:50:23.341Z,59.56
2023-04-15T02:51:23.323Z,59.75
2023-04-15T02:52:23.307Z,60.22
2023-04-15T02:53:23.301Z,60.32
2023-04-15T02:54:23.270Z,59.94
2023-04-15T02:55:23.251Z,60.03
2023-04-15T02:56:23.244Z,60.32
2023-04-15T02:57:23.213Z,60.13
2023-04-15T02:58:23.195Z,60.32
2023-04-15T02:59:23.181Z,60.22
2023-04-15T03:00:23.162Z,60.03
2023-04-15T03:01:23.174Z,60.41
2023-04-15T03:02:23.291Z,60.61
2023-04-15T03:03:23.216Z,60.51
2023-04-15T03:04:23.092Z,60.51
2023-04-15T03:05:23.073Z,60.32
2023-04-15T03:06:23.058Z,60.89
2023-04-15T03:07:23.043Z,60.67
2023-04-15T03:08:23.037Z,60.96
2023-04-15T03:09:23.030Z,60.86
2023-04-15T03:10:22.992Z,60.77
2023-04-15T03:11:22.968Z,60.86
2023-04-15T03:12:22.949Z,60.86
2023-04-15T03:13:22.930Z,60.77
2023-04-15T03:14:22.912Z,60.77
2023-04-15T03:15:22.903Z,60.96
2023-04-15T03:16:22.918Z,60.86
2023-04-15T03:17:22.884Z,61.05
2023-04-15T03:18:22.845Z,61.05
2023-04-15T03:19:22.823Z,60.96
2023-04-15T03:20:22.854Z,60.77
2023-04-15T03:21:22.788Z,60.77
2023-04-15T03:22:22.771Z,60.89
2023-04-15T03:23:22.765Z,60.99
2023-04-15T03:24:22.734Z,60.89
2023-04-15T03:25:22.717Z,61.08
2023-04-15T03:26:22.701Z,60.80
2023-04-15T03:27:22.686Z,60.99
2023-04-15T03:28:22.663Z,60.61
2023-04-15T03:29:22.649Z,60.61
2023-04-15T03:30:22.628Z,60.32
2023-04-15T03:31:22.653Z,60.61
2023-04-15T03:32:22.614Z,60.89
2023-04-15T03:33:22.573Z,60.61
2023-04-15T03:34:22.560Z,60.89
2023-04-15T03:35:22.540Z,60.41
2023-04-15T03:36:22.522Z,60.41
2023-04-15T03:37:22.502Z,60.61
2023-04-15T03:38:22.515Z,60.61
2023-04-15T03:39:22.478Z,60.70
2023-04-15T03:40:22.453Z,60.70
2023-04-15T03:41:22.432Z,60.51
2023-04-15T03:42:22.418Z,60.51
2023-04-15T03:43:22.404Z,60.70
2023-04-15T03:44:22.375Z,60.61
2023-04-15T03:45:22.365Z,60.41
2023-04-15T03:46:22.400Z,60.80
2023-04-15T03:47:22.357Z,60.41
2023-04-15T03:48:22.368Z,60.61
2023-04-15T03:49:22.291Z,60.61
2023-04-15T03:50:22.274Z,60.41
2023-04-15T03:51:22.265Z,60.51
2023-04-15T03:52:22.253Z,60.61
2023-04-15T03:53:22.231Z,60.51
2023-04-15T03:54:22.218Z,60.70
2023-04-15T03:55:22.189Z,60.70
2023-04-15T03:56:22.165Z,60.61
2023-04-15T03:57:22.157Z,60.61
2023-04-15T03:58:22.133Z,60.70
2023-04-15T03:59:22.110Z,60.89
2023-04-15T04:00:22.097Z,60.80
2023-04-15T04:01:22.074Z,61.08
2023-04-15T04:02:22.136Z,60.99
2023-04-15T04:03:22.275Z,60.80
2023-04-15T04:04:22.109Z,60.89
2023-04-15T04:05:22.013Z,60.80
2023-04-15T04:06:21.999Z,60.99
2023-04-15T04:07:21.984Z,60.70
2023-04-15T04:08:21.953Z,60.80
2023-04-15T04:09:21.946Z,60.99
2023-04-15T04:10:21.916Z,60.89
2023-04-15T04:11:21.900Z,60.99
2023-04-15T04:12:21.878Z,61.08
2023-04-15T04:13:21.866Z,60.80
2023-04-15T04:14:21.844Z,61.18
2023-04-15T04:15:21.829Z,60.80
2023-04-15T04:16:21.942Z,61.18
2023-04-15T04:17:21.849Z,61.18
2023-04-15T04:18:21.780Z,60.89
2023-04-15T04:19:21.767Z,60.61
2023-04-15T04:20:21.737Z,60.99
2023-04-15T04:21:21.729Z,60.89
2023-04-15T04:22:21.710Z,60.89
2023-04-15T04:23:21.689Z,60.99
2023-04-15T04:24:21.669Z,60.80
2023-04-15T04:25:21.653Z,60.80
2023-04-15T04:26:21.644Z,60.89
2023-04-15T04:27:21.615Z,60.89
2023-04-15T04:28:21.596Z,60.80
2023-04-15T04:29:21.578Z,60.80
2023-04-15T04:30:21.561Z,60.80
2023-04-15T04:31:21.577Z,60.99
2023-04-15T04:32:21.577Z,60.99
2023-04-15T04:33:21.508Z,61.36
2023-04-15T04:34:21.493Z,61.08
2023-04-15T04:35:21.469Z,61.46
2023-04-15T04:36:21.450Z,61.46
2023-04-15T04:37:21.434Z,61.46
2023-04-15T04:38:21.428Z,61.46
2023-04-15T04:39:21.400Z,61.36
2023-04-15T04:40:21.382Z,61.74
2023-04-15T04:41:21.368Z,61.27
2023-04-15T04:42:21.345Z,61.46
2023-04-15T04:43:21.334Z,61.46
2023-04-15T04:44:21.306Z,61.74
2023-04-15T04:45:21.291Z,61.36
2023-04-15T04:46:21.358Z,61.27
2023-04-15T04:47:21.261Z,61.46
2023-04-15T04:48:21.240Z,61.36
2023-04-15T04:49:21.227Z,61.27
2023-04-15T04:50:21.209Z,61.55
2023-04-15T04:51:21.184Z,61.36
2023-04-15T04:52:21.177Z,61.27
2023-04-15T04:53:21.161Z,61.27
2023-04-15T04:54:21.150Z,61.36
2023-04-15T04:55:21.120Z,61.36
2023-04-15T04:56:21.098Z,61.36
2023-04-15T04:57:21.075Z,61.36
2023-04-15T04:58:21.068Z,61.58
2023-04-15T04:59:21.044Z,61.49
2023-04-15T05:00:21.023Z,61.77
2023-04-15T05:01:21.032Z,61.77
2023-04-15T05:02:21.046Z,61.58
2023-04-15T05:03:21.203Z,61.49
2023-04-15T05:04:20.953Z,61.58
2023-04-15T05:05:20.937Z,61.40
2023-04-15T05:06:20.919Z,61.40
2023-04-15T05:07:20.899Z,61.49
2023-04-15T05:08:20.881Z,61.21
2023-04-15T05:09:20.868Z,61.30
2023-04-15T05:10:20.849Z,61.40
2023-04-15T05:11:20.853Z,61.21
2023-04-15T05:12:20.816Z,61.02
2023-04-15T05:13:20.797Z,61.11
2023-04-15T05:14:22.198Z,61.02
2023-04-15T05:15:20.765Z,60.54
2023-04-15T05:16:20.852Z,60.92
2023-04-15T05:17:20.783Z,61.02
2023-04-15T05:18:20.705Z,60.73
2023-04-15T05:19:20.718Z,60.83
2023-04-15T05:20:20.671Z,60.83
2023-04-15T05:21:20.660Z,60.83
2023-04-15T05:22:20.645Z,61.05
2023-04-15T05:23:20.633Z,61.02
2023-04-15T05:24:20.600Z,60.95
2023-04-15T05:25:20.597Z,60.95
2023-04-15T05:26:20.574Z,60.47
2023-04-15T05:27:20.554Z,60.67
2023-04-15T05:28:20.535Z,60.19
2023-04-15T05:29:20.519Z,60.10
2023-04-15T05:30:20.520Z,60.19
2023-04-15T05:31:20.547Z,60.47
2023-04-15T05:32:20.491Z,60.67
2023-04-15T05:33:20.456Z,60.19
2023-04-15T05:34:20.429Z,60.19
2023-04-15T05:35:20.415Z,60.47
2023-04-15T05:36:20.401Z,60.22
2023-04-15T05:37:20.383Z,60.03
2023-04-15T05:38:20.358Z,60.03
2023-04-15T05:39:20.341Z,60.22
2023-04-15T05:40:20.320Z,60.03
2023-04-15T05:41:20.315Z,59.84
2023-04-15T05:42:20.295Z,59.84
2023-04-15T05:43:20.267Z,59.84
2023-04-15T05:44:20.262Z,59.88
2023-04-15T05:45:20.279Z,60.06
2023-04-15T05:46:20.265Z,59.78
2023-04-15T05:47:20.228Z,59.78
2023-04-15T05:48:20.183Z,59.49
2023-04-15T05:49:20.167Z,59.30
2023-04-15T05:50:20.200Z,59.68
2023-04-15T05:51:20.131Z,59.52
2023-04-15T05:52:20.112Z,59.24
2023-04-15T05:53:20.094Z,59.24
2023-04-15T05:54:20.344Z,59.33
2023-04-15T05:55:20.064Z,59.14
2023-04-15T05:56:20.042Z,59.14
2023-04-15T05:57:20.030Z,59.24
2023-04-15T05:58:20.021Z,58.80
2023-04-15T05:59:20.025Z,58.61
2023-04-15T06:00:19.986Z,59.55
2023-04-15T06:01:19.979Z,59.46
2023-04-15T06:02:20.081Z,58.70
2023-04-15T06:03:19.981Z,58.61
2023-04-15T06:04:19.981Z,58.89
2023-04-15T06:05:19.897Z,58.70
2023-04-15T06:06:19.889Z,58.92
2023-04-15T06:07:19.862Z,58.83
2023-04-15T06:08:19.841Z,58.73
2023-04-15T06:09:19.825Z,58.73
2023-04-15T06:10:19.812Z,59.01
2023-04-15T06:11:19.790Z,58.92
2023-04-15T06:12:19.777Z,58.83
2023-04-15T06:13:19.765Z,58.57
2023-04-15T06:14:19.767Z,58.85
2023-04-15T06:15:19.729Z,58.47
2023-04-15T06:16:19.766Z,58.28
2023-04-15T06:17:19.730Z,58.09
2023-04-15T06:18:19.687Z,58.28
2023-04-15T06:19:19.661Z,58.37
2023-04-15T06:20:19.640Z,58.31
2023-04-15T06:21:19.626Z,58.22
2023-04-15T06:22:19.616Z,58.12
2023-04-15T06:23:19.595Z,57.55
2023-04-15T06:24:19.585Z,57.67
2023-04-15T06:25:19.573Z,57.58
2023-04-15T06:26:19.558Z,57.58
2023-04-15T06:27:19.528Z,57.20
2023-04-15T06:28:19.521Z,57.01
2023-04-15T06:29:19.509Z,57.01
2023-04-15T06:30:19.491Z,57.01
2023-04-15T06:31:19.501Z,56.82
2023-04-15T06:32:19.448Z,56.65
2023-04-15T06:33:19.439Z,56.56
2023-04-15T06:34:19.425Z,56.85
2023-04-15T06:35:19.403Z,57.04
2023-04-15T06:36:19.397Z,56.46
2023-04-15T06:37:19.383Z,56.37
2023-04-15T06:38:19.358Z,56.65
2023-04-15T06:39:19.338Z,56.56
2023-04-15T06:40:19.325Z,56.65
2023-04-15T06:41:19.306Z,56.75
2023-04-15T06:42:19.298Z,57.04
2023-04-15T06:43:19.275Z,56.94
2023-04-15T06:44:19.261Z,57.23
2023-04-15T06:45:19.242Z,57.04
2023-04-15T06:46:19.279Z,57.13
2023-04-15T06:47:19.248Z,57.04
2023-04-15T06:48:19.205Z,56.97
2023-04-15T06:49:19.182Z,56.78
2023-04-15T06:50:19.165Z,56.30
2023-04-15T06:51:19.151Z,56.33
2023-04-15T06:52:19.137Z,56.52
2023-04-15T06:53:19.119Z,55.76
2023-04-15T06:54:19.105Z,55.69
2023-04-15T06:55:19.094Z,55.21
2023-04-15T06:56:19.072Z,55.12
2023-04-15T06:57:19.062Z,54.93
2023-04-15T06:58:19.040Z,55.31
2023-04-15T06:59:19.048Z,54.77
2023-04-15T07:00:19.009Z,55.34
2023-04-15T07:01:19.033Z,54.57
2023-04-15T07:02:19.065Z,54.38
2023-04-15T07:03:19.001Z,54.22
2023-04-15T07:04:18.978Z,54.32
2023-04-15T07:05:18.941Z,54.41
2023-04-15T07:06:18.923Z,54.41
2023-04-15T07:07:18.910Z,53.86
2023-04-15T07:08:26.764Z,53.67
2023-04-15T07:09:18.877Z,53.49
2023-04-15T07:10:18.867Z,53.32
2023-04-15T07:11:18.852Z,53.32
2023-04-15T07:12:18.829Z,53.13
2023-04-15T07:13:18.816Z,52.46
2023-04-15T07:14:18.812Z,52.46
2023-04-15T07:15:18.791Z,52.67
2023-04-15T07:16:18.840Z,52.29
2023-04-15T07:17:18.822Z,52.20
2023-04-15T07:18:18.747Z,51.81
2023-04-15T07:19:18.732Z,52.10
2023-04-15T07:20:18.723Z,52.29
2023-04-15T07:21:18.713Z,52.10
2023-04-15T07:22:18.692Z,51.81
2023-04-15T07:23:18.680Z,52.01
2023-04-15T07:24:18.659Z,52.10
2023-04-15T07:25:18.650Z,52.10
2023-04-15T07:26:18.645Z,52.39
2023-04-15T07:27:18.638Z,52.65
2023-04-15T07:28:18.630Z,52.26
2023-04-15T07:29:18.603Z,52.46
2023-04-15T07:30:18.591Z,53.29
2023-04-15T07:31:18.641Z,53.00
2023-04-15T07:32:18.572Z,53.58
2023-04-15T07:33:18.552Z,53.39
2023-04-15T07:34:18.541Z,53.20
2023-04-15T07:35:18.517Z,53.10
2023-04-15T07:36:18.494Z,53.29
2023-04-15T07:37:18.483Z,53.29
2023-04-15T07:38:18.478Z,53.29
2023-04-15T07:39:18.462Z,53.03
2023-04-15T07:40:18.437Z,52.84
2023-04-15T07:41:18.437Z,52.67
2023-04-15T07:42:18.418Z,52.29
2023-04-15T07:43:18.413Z,51.84
2023-04-15T07:44:18.383Z,51.56
2023-04-15T07:45:18.415Z,51.01
2023-04-15T07:46:18.413Z,50.74
2023-04-15T07:47:18.407Z,50.46
2023-04-15T07:48:18.332Z,50.36
2023-04-15T07:49:18.317Z,49.52
2023-04-15T07:50:18.303Z,49.52
2023-04-15T07:51:18.290Z,49.52
2023-04-15T07:52:18.273Z,49.45
2023-04-15T07:53:18.266Z,49.26
2023-04-15T07:54:18.256Z,48.97
2023-04-15T07:55:18.237Z,49.16
2023-04-15T07:56:18.216Z,49.07
2023-04-15T07:57:18.207Z,49.16
2023-04-15T07:58:18.190Z,48.97
2023-04-15T07:59:18.183Z,49.16
2023-04-15T08:00:18.178Z,49.24
2023-04-15T08:01:18.153Z,49.33
2023-04-15T08:02:18.265Z,49.33
2023-04-15T08:03:18.171Z,49.62
2023-04-15T08:04:18.227Z,49.43
2023-04-15T08:05:18.142Z,49.43
2023-04-15T08:06:18.091Z,49.31
2023-04-15T08:07:18.078Z,49.69
2023-04-15T08:08:18.061Z,49.60
2023-04-15T08:09:18.048Z,49.43
2023-04-15T08:10:18.047Z,49.31
2023-04-15T08:11:18.022Z,49.52
2023-04-15T08:12:18.009Z,49.33
2023-04-15T08:13:18.006Z,49.40
2023-04-15T08:14:17.981Z,49.62
2023-04-15T08:15:17.967Z,49.24
2023-04-15T08:16:17.982Z,49.62
2023-04-15T08:17:17.958Z,49.60
2023-04-15T08:18:17.931Z,49.60
2023-04-15T08:19:17.912Z,49.31
2023-04-15T08:20:17.904Z,49.60
2023-04-15T08:21:17.903Z,49.88
2023-04-15T08:22:18.511Z,50.26
2023-04-15T08:23:17.854Z,50.26
2023-04-15T08:24:17.844Z,49.88
2023-04-15T08:25:17.831Z,49.50
2023-04-15T08:26:17.816Z,49.50
2023-04-15T08:27:17.808Z,49.60
2023-04-15T08:28:17.791Z,49.40
2023-04-15T08:29:17.806Z,49.52
2023-04-15T08:30:17.764Z,49.33
2023-04-15T08:31:17.771Z,49.26
2023-04-15T08:32:17.768Z,48.88
2023-04-15T08:33:17.722Z,47.94
2023-04-15T08:34:17.712Z,47.97
2023-04-15T08:35:17.704Z,47.41
2023-04-15T08:36:17.698Z,47.03
2023-04-15T08:37:17.668Z,47.03
2023-04-15T08:38:17.670Z,47.03
2023-04-15T08:39:17.650Z,47.05
2023-04-15T08:40:17.632Z,46.48
2023-04-15T08:41:17.623Z,46.48
2023-04-15T08:42:17.613Z,46.41
2023-04-15T08:43:17.591Z,46.50
2023-04-15T08:44:17.581Z,46.50
2023-04-15T08:45:17.570Z,46.04
2023-04-15T08:46:17.610Z,46.53
2023-04-15T08:47:17.546Z,45.85
2023-04-15T08:48:17.538Z,45.76
2023-04-15T08:49:17.533Z,46.23
2023-04-15T08:50:17.512Z,46.43
2023-04-15T08:51:17.500Z,46.36
2023-04-15T08:52:17.482Z,45.53
2023-04-15T08:53:17.488Z,44.71
2023-04-15T08:54:17.511Z,43.14
2023-04-15T08:55:17.449Z,42.21
2023-04-15T08:56:17.475Z,41.29
2023-04-15T08:57:17.424Z,40.63
2023-04-15T08:58:17.415Z,40.46
2023-04-15T08:59:17.399Z,40.36
2023-04-15T09:00:17.405Z,40.09
2023-04-15T09:01:17.458Z,40.19
2023-04-15T09:02:17.514Z,40.03
2023-04-15T09:03:17.460Z,39.18
2023-04-15T09:04:17.385Z,38.89
2023-04-15T09:05:17.332Z,39.18
2023-04-15T09:06:17.331Z,39.74
2023-04-15T09:07:17.324Z,40.19
2023-04-15T09:08:17.360Z,40.75
2023-04-15T09:09:17.289Z,41.31
2023-04-15T09:10:17.285Z,41.87
2023-04-15T09:11:19.475Z,41.19
2023-04-15T09:12:17.316Z,41.67
2023-04-15T09:13:17.257Z,41.39
2023-04-15T09:14:17.250Z,41.75
2023-04-15T09:15:17.230Z,42.04
2023-04-15T09:16:17.286Z,42.21
2023-04-15T09:17:17.207Z,42.50
2023-04-15T09:18:17.222Z,42.14
2023-04-15T09:19:17.185Z,41.73
2023-04-15T09:20:17.211Z,42.10
2023-04-15T09:21:17.172Z,42.66
2023-04-15T09:22:17.168Z,43.21
2023-04-15T09:23:17.150Z,43.67
2023-04-15T09:24:17.135Z,43.46
2023-04-15T09:25:17.125Z,44.21
2023-04-15T09:26:17.127Z,44.48
2023-04-15T09:27:17.099Z,44.96
2023-04-15T09:28:17.096Z,44.84
2023-04-15T09:29:17.079Z,45.03
2023-04-15T09:30:17.191Z,45.13
2023-04-15T09:31:17.191Z,45.13
2023-04-15T09:32:17.070Z,45.42
2023-04-15T09:33:17.046Z,45.51
2023-04-15T09:34:17.027Z,45.39
2023-04-15T09:35:17.022Z,45.68
2023-04-15T09:36:17.016Z,45.22
2023-04-15T09:37:31.353Z,44.93
2023-04-15T09:38:16.992Z,44.93
2023-04-15T09:39:17.012Z,44.48
2023-04-15T09:40:17.029Z,44.09
2023-04-15T09:41:16.954Z,43.92
2023-04-15T09:42:16.946Z,43.54
2023-04-15T09:43:16.931Z,43.75
2023-04-15T09:44:16.951Z,43.07
2023-04-15T09:45:16.916Z,43.17
2023-04-15T09:46:16.949Z,43.17
2023-04-15T09:47:16.883Z,42.97
2023-04-15T09:48:16.916Z,43.07
2023-04-15T09:49:16.968Z,43.15
2023-04-15T09:50:16.853Z,43.63
2023-04-15T09:51:16.843Z,43.61
2023-04-15T09:52:16.830Z,43.90
2023-04-15T09:53:16.819Z,44.45
2023-04-15T09:54:16.835Z,44.45
2023-04-15T09:55:16.839Z,44.53
2023-04-15T09:56:16.789Z,44.89
2023-04-15T09:57:16.775Z,45.47
2023-04-15T09:58:16.772Z,45.73
2023-04-15T09:59:16.756Z,45.54
2023-04-15T10:00:16.776Z,45.73
2023-04-15T10:01:16.753Z,45.71
2023-04-15T10:02:16.782Z,45.54
2023-04-15T10:03:16.941Z,45.83
2023-04-15T10:04:16.827Z,45.83
2023-04-15T10:05:16.689Z,45.45
2023-04-15T10:06:16.691Z,45.25
2023-04-15T10:07:16.668Z,45.54
2023-04-15T10:08:16.662Z,45.52
2023-04-15T10:09:16.663Z,45.42
2023-04-15T10:10:16.662Z,45.35
2023-04-15T10:11:16.624Z,44.77
2023-04-15T10:12:16.611Z,45.15
2023-04-15T10:13:16.652Z,44.96
2023-04-15T10:14:16.595Z,44.87
2023-04-15T10:15:16.587Z,44.87
2023-04-15T10:16:16.657Z,45.14
2023-04-15T10:17:16.585Z,44.94
2023-04-15T10:18:16.543Z,45.04
2023-04-15T10:19:16.530Z,45.32
2023-04-15T10:20:16.526Z,45.52
2023-04-15T10:21:16.642Z,45.61
2023-04-15T10:22:16.500Z,45.71
2023-04-15T10:23:16.489Z,45.52
2023-04-15T10:24:16.497Z,45.42
2023-04-15T10:25:16.489Z,44.94
2023-04-15T10:26:16.484Z,44.65
2023-04-15T10:27:16.561Z,44.96
2023-04-15T10:28:16.446Z,44.41
2023-04-15T10:29:16.421Z,44.31
2023-04-15T10:30:16.429Z,43.93
2023-04-15T10:31:16.417Z,43.54
2023-04-15T10:32:16.390Z,43.84
2023-04-15T10:33:16.367Z,43.84
2023-04-15T10:34:16.364Z,43.74
2023-04-15T10:35:16.348Z,43.84
2023-04-15T10:36:16.435Z,43.64
2023-04-15T10:37:16.380Z,43.76
2023-04-15T10:38:16.343Z,43.47
2023-04-15T10:39:16.292Z,43.18
2023-04-15T10:40:16.352Z,43.11
2023-04-15T10:41:17.759Z,43.01
2023-04-15T10:42:16.277Z,42.93
2023-04-15T10:43:16.279Z,42.40
2023-04-15T10:44:16.264Z,41.28
2023-04-15T10:45:16.223Z,40.36
2023-04-15T10:46:16.424Z,39.80
2023-04-15T10:47:16.211Z,38.76
2023-04-15T10:48:16.190Z,38.66
2023-04-15T10:49:16.178Z,38.85
2023-04-15T10:50:16.168Z,38.74
2023-04-15T10:51:16.160Z,39.59
2023-04-15T10:52:16.151Z,40.07
2023-04-15T10:53:16.154Z,40.44
2023-04-15T10:54:16.182Z,40.63
2023-04-15T10:55:16.114Z,40.70
2023-04-15T10:56:16.111Z,41.09
2023-04-15T10:57:16.104Z,41.11
2023-04-15T10:58:16.082Z,40.53
2023-04-15T10:59:16.081Z,40.45
2023-04-15T11:00:16.058Z,40.19
2023-04-15T11:01:16.046Z,39.99
2023-04-15T11:02:16.465Z,39.61
2023-04-15T11:03:16.161Z,39.80
2023-04-15T11:04:16.184Z,39.61
2023-04-15T11:05:16.052Z,39.61
2023-04-15T11:06:16.032Z,39.70
2023-04-15T11:07:16.049Z,39.70
2023-04-15T11:08:15.977Z,39.61
2023-04-15T11:09:15.976Z,39.80
2023-04-15T11:10:15.974Z,39.97
2023-04-15T11:11:15.977Z,40.15
2023-04-15T11:12:15.931Z,40.53
2023-04-15T11:13:15.922Z,40.99
2023-04-15T11:14:15.925Z,41.19
2023-04-15T11:15:15.902Z,41.09
2023-04-15T11:16:15.909Z,40.99
2023-04-15T11:17:15.891Z,41.19
2023-04-15T11:18:15.878Z,40.72
2023-04-15T11:19:15.855Z,40.63
2023-04-15T11:20:15.848Z,40.05
2023-04-15T11:21:15.876Z,40.34
2023-04-15T11:22:15.825Z,40.44
2023-04-15T11:23:16.040Z,40.36
2023-04-15T11:24:15.806Z,39.95
2023-04-15T11:25:15.800Z,40.34
2023-04-15T11:26:15.798Z,40.63
2023-04-15T11:27:15.780Z,40.51
2023-04-15T11:28:15.784Z,40.51
2023-04-15T11:29:15.784Z,40.70
2023-04-15T11:30:15.749Z,41.09
2023-04-15T11:31:15.831Z,40.90
2023-04-15T11:32:15.825Z,41.17
2023-04-15T11:33:15.718Z,41.17
2023-04-15T11:34:15.716Z,41.27
2023-04-15T11:35:15.705Z,41.07
2023-04-15T11:36:15.697Z,41.27
2023-04-15T11:37:15.685Z,41.36
2023-04-15T11:38:15.690Z,41.36
2023-04-15T11:39:15.656Z,40.97
2023-04-15T11:40:15.668Z,40.95
2023-04-15T11:41:15.630Z,41.34
2023-04-15T11:42:15.631Z,41.34
2023-04-15T11:43:15.635Z,41.22
2023-04-15T11:44:15.623Z,41.99
2023-04-15T11:45:15.597Z,41.97
2023-04-15T11:46:15.631Z,42.07
2023-04-15T11:47:15.575Z,42.16
2023-04-15T11:48:15.571Z,42.07
2023-04-15T11:49:15.556Z,41.97
2023-04-15T11:50:15.544Z,42.07
2023-04-15T11:51:15.554Z,41.97
2023-04-15T11:52:15.531Z,42.07
2023-04-15T11:53:15.517Z,41.86
2023-04-15T11:54:15.572Z,41.95
2023-04-15T11:55:15.509Z,42.14
2023-04-15T11:56:15.473Z,42.24
2023-04-15T11:57:15.477Z,42.32
2023-04-15T11:58:16.329Z,42.50
2023-04-15T11:59:15.443Z,42.22
2023-04-15T12:00:15.438Z,42.12
2023-04-15T12:01:15.422Z,42.12
2023-04-15T12:02:15.548Z,42.12
2023-04-15T12:03:15.677Z,42.41
2023-04-15T12:04:15.548Z,42.49
2023-04-15T12:05:15.472Z,42.85
2023-04-15T12:06:15.366Z,43.12
2023-04-15T12:07:15.357Z,43.12
2023-04-15T12:08:15.419Z,43.65
2023-04-15T12:09:15.340Z,44.20
2023-04-15T12:10:15.354Z,44.47
2023-04-15T12:11:15.532Z,45.23
2023-04-15T12:12:15.451Z,45.59
2023-04-15T12:13:15.286Z,45.96
2023-04-15T12:14:15.277Z,46.53
2023-04-15T12:15:15.259Z,46.80
2023-04-15T12:16:15.315Z,46.98
2023-04-15T12:17:15.241Z,47.16
2023-04-15T12:18:15.288Z,47.63
2023-04-15T12:19:15.216Z,47.71
2023-04-15T12:20:15.238Z,47.89
2023-04-15T12:21:15.193Z,48.35
2023-04-15T12:22:15.200Z,48.64
2023-04-15T12:23:15.170Z,48.83
2023-04-15T12:24:15.149Z,48.83
2023-04-15T12:25:15.142Z,48.83
2023-04-15T12:26:15.139Z,48.64
2023-04-15T12:27:15.127Z,49.21
2023-04-15T12:28:15.105Z,49.40
2023-04-15T12:29:15.094Z,49.38
2023-04-15T12:30:15.084Z,49.47
2023-04-15T12:31:15.101Z,49.38
2023-04-15T12:32:15.132Z,49.76
2023-04-15T12:33:15.044Z,49.83
2023-04-15T12:34:15.134Z,50.02
2023-04-15T12:35:15.023Z,50.31
2023-04-15T12:36:15.003Z,50.31
2023-04-15T12:37:14.993Z,50.12
2023-04-15T12:38:15.084Z,50.31
2023-04-15T12:39:14.959Z,50.40
2023-04-15T12:40:14.965Z,50.40
2023-04-15T12:41:14.982Z,50.59
2023-04-15T12:42:14.926Z,50.69
2023-04-15T12:43:14.916Z,50.69
2023-04-15T12:44:14.904Z,50.69
2023-04-15T12:45:14.886Z,50.69
2023-04-15T12:46:14.888Z,50.78
2023-04-15T12:47:14.867Z,50.59
2023-04-15T12:48:14.851Z,51.07
2023-04-15T12:49:14.852Z,50.88
2023-04-15T12:50:14.823Z,51.26
2023-04-15T12:51:14.805Z,51.17
2023-04-15T12:52:14.788Z,51.83
2023-04-15T12:53:14.778Z,51.54
2023-04-15T12:54:14.762Z,51.43